createdAt,value
2019-04-04T00:00:04.105Z,12.5
2019-04-04T00:01:06.488Z,12.6
2019-04-04T00:02:08.535Z,12.5
2019-04-04T00:03:10.578Z,12.5
2019-04-04T00:04:12.628Z,12.5
2019-04-04T00:05:15.383Z,12.5
2019-04-04T00:06:17.438Z,12.6
2019-04-04T00:07:19.779Z,12.6
2019-04-04T00:08:22.100Z,12.6
2019-04-04T00:09:24.144Z,12.8
2019-04-04T00:10:26.197Z,12.6
2019-04-04T00:11:28.255Z,12.6
2019-04-04T00:12:30.987Z,12.5
2019-04-04T00:13:33.046Z,12.7
2019-04-04T00:14:35.102Z,12.7
2019-04-04T00:15:37.434Z,12.6
2019-04-04T00:16:39.487Z,12.7
2019-04-04T00:17:41.520Z,12.7
2019-04-04T00:18:43.850Z,12.7
2019-04-04T00:19:45.902Z,12.8
2019-04-04T00:20:47.945Z,12.6
2019-04-04T00:21:50.000Z,12.8
2019-04-04T00:22:52.046Z,12.6
2019-04-04T00:23:54.132Z,12.6
2019-04-04T00:24:56.170Z,12.6
2019-04-04T00:25:58.608Z,12.6
2019-04-04T00:27:00.921Z,12.6
2019-04-04T00:28:02.965Z,12.6
2019-04-04T00:29:05.301Z,12.6
2019-04-04T00:30:07.619Z,12.3
2019-04-04T00:31:10.066Z,12.5
2019-04-04T00:32:12.121Z,12.5
2019-04-04T00:33:14.172Z,12.5
2019-04-04T00:34:16.494Z,12.4
2019-04-04T00:35:18.548Z,12.4
2019-04-04T00:36:20.583Z,12.4
2019-04-04T00:37:22.610Z,12.3
2019-04-04T00:38:24.718Z,12.4
2019-04-04T00:39:26.745Z,12.4
2019-04-04T00:40:28.796Z,12.4
2019-04-04T00:41:31.123Z,12.4
2019-04-04T00:42:33.440Z,12.4
2019-04-04T00:43:35.474Z,12.4
2019-04-04T00:44:37.510Z,12.4
2019-04-04T00:45:39.602Z,12.4
2019-04-04T00:46:41.650Z,12.4
2019-04-04T00:47:44.166Z,12.5
2019-04-04T00:48:46.294Z,12.4
2019-04-04T00:49:48.322Z,12.4
2019-04-04T00:50:50.660Z,12.3
2019-04-04T00:51:53.076Z,12.3
2019-04-04T00:52:55.110Z,12.2
2019-04-04T00:53:57.138Z,12.4
2019-04-04T00:54:59.177Z,12.3
2019-04-04T00:56:01.234Z,12.4
2019-04-04T00:57:03.276Z,12.3
2019-04-04T00:58:05.585Z,11.7
2019-04-04T00:59:07.637Z,11.6
2019-04-04T01:00:09.665Z,11.5
2019-04-04T01:01:11.723Z,11.7
2019-04-04T01:02:14.170Z,11.8
2019-04-04T01:03:16.496Z,11.9
2019-04-04T01:04:18.550Z,11.8
2019-04-04T01:05:20.582Z,12.1
2019-04-04T01:06:22.623Z,11.9
2019-04-04T01:07:24.644Z,11.7
2019-04-04T01:08:26.685Z,11.5
2019-04-04T01:09:28.725Z,11.7
2019-04-04T01:10:30.827Z,11.8
2019-04-04T01:11:33.258Z,11.7
2019-04-04T01:12:35.301Z,11.9
2019-04-04T01:13:37.697Z,11.8
2019-04-04T01:14:40.133Z,11.3
2019-04-04T01:15:42.204Z,11.2
2019-04-04T01:16:44.231Z,11.5
2019-04-04T01:17:46.666Z,11.5
2019-04-04T01:18:48.723Z,11.5
2019-04-04T01:19:51.145Z,11.7
2019-04-04T01:20:53.200Z,11.3
2019-04-04T01:21:55.639Z,11
2019-04-04T01:22:57.795Z,10.8
2019-04-04T01:24:00.419Z,11
2019-04-04T01:25:02.744Z,11.1
2019-04-04T01:26:05.538Z,11.1
2019-04-04T01:27:08.320Z,11.2
2019-04-04T01:28:10.947Z,11.1
2019-04-04T01:29:13.292Z,11.1
2019-04-04T01:30:15.343Z,11.1
2019-04-04T01:31:17.404Z,11.1
2019-04-04T01:32:19.439Z,11.1
2019-04-04T01:33:21.779Z,11.1
2019-04-04T01:34:23.823Z,11.2
2019-04-04T01:35:25.861Z,11.2
2019-04-04T01:36:28.166Z,11
2019-04-04T01:37:30.621Z,11.1
2019-04-04T01:38:32.670Z,11.1
2019-04-04T01:39:34.716Z,11.1
2019-04-04T01:40:37.011Z,11
2019-04-04T01:41:39.079Z,10.9
2019-04-04T01:42:41.676Z,10.8
2019-04-04T01:43:43.738Z,10.8
2019-04-04T01:44:45.784Z,10.7
2019-04-04T01:45:48.095Z,10.8
2019-04-04T01:46:50.420Z,10.8
2019-04-04T01:47:52.466Z,10.9
2019-04-04T01:48:54.528Z,10.8
2019-04-04T01:49:56.573Z,10.7
2019-04-04T01:50:58.611Z,10.4
2019-04-04T01:52:00.638Z,10.5
2019-04-04T01:53:02.669Z,10.6
2019-04-04T01:54:04.721Z,10.5
2019-04-04T01:55:07.074Z,10.3
2019-04-04T01:56:09.495Z,10.2
2019-04-04T01:57:11.546Z,10.3
2019-04-04T01:58:13.610Z,10.4
2019-04-04T01:59:15.679Z,10.5
2019-04-04T02:00:17.724Z,10.4
2019-04-04T02:01:19.753Z,10.3
2019-04-04T02:02:22.197Z,10.5
2019-04-04T02:03:24.425Z,10.5
2019-04-04T02:04:26.498Z,10.3
2019-04-04T02:05:28.686Z,10.2
2019-04-04T02:06:30.727Z,10.1
2019-04-04T02:07:32.757Z,10
2019-04-04T02:08:34.810Z,10
2019-04-04T02:09:36.841Z,9.9
2019-04-04T02:10:39.310Z,9.9
2019-04-04T02:11:41.909Z,9.9
2019-04-04T02:12:43.949Z,10
2019-04-04T02:13:45.972Z,9.9
2019-04-04T02:14:48.293Z,9.8
2019-04-04T02:15:50.329Z,9.7
2019-04-04T02:16:52.684Z,9.7
2019-04-04T02:17:54.729Z,9.6
2019-04-04T02:18:56.751Z,9.6
2019-04-04T02:19:58.810Z,9.6
2019-04-04T02:21:00.853Z,9.7
2019-04-04T02:22:02.914Z,9.6
2019-04-04T02:23:04.936Z,9.6
2019-04-04T02:24:06.973Z,9.6
2019-04-04T02:25:09.314Z,9.5
2019-04-04T02:26:11.761Z,9.5
2019-04-04T02:27:14.089Z,9.4
2019-04-04T02:28:16.435Z,9.5
2019-04-04T02:29:18.479Z,9.5
2019-04-04T02:30:20.538Z,9.5
2019-04-04T02:31:23.313Z,9.4
2019-04-04T02:32:28.786Z,9.3
2019-04-04T02:33:34.127Z,9.2
2019-04-04T02:34:39.391Z,9.1
2019-04-04T02:35:44.839Z,9
2019-04-04T02:36:51.202Z,8.9
2019-04-04T02:37:57.065Z,9
2019-04-04T02:39:01.996Z,9
2019-04-04T02:40:11.315Z,9
2019-04-04T02:41:17.442Z,9
2019-04-04T02:42:23.406Z,9
2019-04-04T02:43:29.570Z,9
2019-04-04T02:44:34.122Z,9.1
2019-04-04T02:45:39.892Z,9.2
2019-04-04T02:46:47.366Z,9.2
2019-04-04T02:47:52.395Z,9.2
2019-04-04T02:48:57.921Z,9.2
2019-04-04T02:50:03.498Z,9.2
2019-04-04T02:51:09.536Z,9.2
2019-04-04T02:52:15.260Z,9.1
2019-04-04T02:53:21.456Z,9.1
2019-04-04T02:54:26.823Z,9.1
2019-04-04T02:55:32.682Z,9.1
2019-04-04T02:56:37.349Z,9.1
2019-04-04T02:57:43.424Z,9.1
2019-04-04T02:58:48.517Z,9.1
2019-04-04T02:59:55.551Z,9
2019-04-04T03:01:01.752Z,9
2019-04-04T03:02:07.366Z,9
2019-04-04T03:03:10.633Z,8.9
2019-04-04T03:04:15.327Z,8.9
2019-04-04T03:05:21.354Z,9
2019-04-04T03:06:26.618Z,9
2019-04-04T03:07:32.100Z,8.8
2019-04-04T03:08:39.035Z,8.8
2019-04-04T03:09:44.786Z,8.8
2019-04-04T03:10:50.685Z,8.8
2019-04-04T03:11:55.905Z,8.6
2019-04-04T03:13:00.406Z,8.5
2019-04-04T03:14:06.096Z,8.6
2019-04-04T03:15:11.512Z,8.7
2019-04-04T03:16:14.222Z,8.7
2019-04-04T03:17:16.304Z,8.7
2019-04-04T03:18:19.069Z,8.6
2019-04-04T03:19:21.426Z,8.6
2019-04-04T03:20:23.857Z,8.7
2019-04-04T03:21:25.984Z,8.8
2019-04-04T03:22:29.373Z,8.8
2019-04-04T03:23:34.895Z,8.9
2019-04-04T03:24:46.372Z,8.9
2019-04-04T03:25:49.278Z,8.8
2019-04-04T03:26:55.247Z,8.9
2019-04-04T03:28:00.268Z,8.9
2019-04-04T03:29:11.392Z,8.9
2019-04-04T03:30:18.455Z,8.8
2019-04-04T03:31:21.114Z,8.8
2019-04-04T03:32:23.588Z,8.7
2019-04-04T03:33:33.634Z,8.6
2019-04-04T03:34:36.126Z,8.6
2019-04-04T03:35:38.552Z,8.7
2019-04-04T03:36:41.157Z,8.7
2019-04-04T03:37:47.362Z,8.6
2019-04-04T03:38:49.458Z,8.5
2019-04-04T03:39:54.449Z,8.6
2019-04-04T03:40:59.741Z,8.7
2019-04-04T03:42:02.086Z,8.7
2019-04-04T03:43:09.125Z,8.7
2019-04-04T03:44:11.174Z,8.4
2019-04-04T03:45:13.229Z,8.3
2019-04-04T03:46:15.577Z,8.4
2019-04-04T03:47:18.201Z,8.5
2019-04-04T03:48:20.655Z,8.6
2019-04-04T03:49:25.676Z,8.6
2019-04-04T03:50:31.691Z,8.6
2019-04-04T03:51:39.513Z,8.6
2019-04-04T03:52:45.798Z,8.5
2019-04-04T03:53:51.524Z,8.4
2019-04-04T03:54:57.698Z,8.4
2019-04-04T03:56:02.568Z,8.5
2019-04-04T03:57:05.267Z,8.5
2019-04-04T03:58:08.026Z,8.5
2019-04-04T03:59:10.906Z,8.5
2019-04-04T04:00:12.974Z,8.5
2019-04-04T04:01:15.045Z,8.5
2019-04-04T04:02:20.341Z,8.4
2019-04-04T04:03:24.517Z,8.3
2019-04-04T04:04:29.412Z,8.3
2019-04-04T04:05:41.498Z,8.3
2019-04-04T04:06:44.624Z,8.3
2019-04-04T04:07:49.955Z,8.3
2019-04-04T04:08:56.532Z,8.1
2019-04-04T04:10:01.422Z,8.1
2019-04-04T04:11:07.365Z,8.1
2019-04-04T04:12:12.906Z,8.1
2019-04-04T04:13:18.474Z,8.1
2019-04-04T04:14:23.990Z,8
2019-04-04T04:15:31.847Z,7.9
2019-04-04T04:16:37.114Z,7.8
2019-04-04T04:17:39.222Z,7.7
2019-04-04T04:18:41.306Z,7.8
2019-04-04T04:19:43.372Z,7.8
2019-04-04T04:20:45.797Z,7.8
2019-04-04T04:21:48.274Z,7.8
2019-04-04T04:22:52.589Z,7.8
2019-04-04T04:23:59.546Z,7.8
2019-04-04T04:25:04.760Z,7.8
2019-04-04T04:26:11.025Z,7.8
2019-04-04T04:27:16.924Z,7.7
2019-04-04T04:28:22.401Z,7.7
2019-04-04T04:29:24.883Z,7.7
2019-04-04T04:30:31.877Z,7.6
2019-04-04T04:31:33.906Z,7.6
2019-04-04T04:32:39.422Z,7.5
2019-04-04T04:33:41.854Z,7.5
2019-04-04T04:34:44.556Z,7.5
2019-04-04T04:35:46.916Z,7.6
2019-04-04T04:36:49.571Z,7.6
2019-04-04T04:37:54.977Z,7.6
2019-04-04T04:39:01.508Z,7.5
2019-04-04T04:40:04.418Z,7.6
2019-04-04T04:41:06.440Z,7.8
2019-04-04T04:42:08.792Z,7.9
2019-04-04T04:43:11.104Z,7.9
2019-04-04T04:44:17.608Z,7.8
2019-04-04T04:45:19.677Z,7.8
2019-04-04T04:46:22.013Z,8
2019-04-04T04:47:25.469Z,8.2
2019-04-04T04:48:33.285Z,8.3
2019-04-04T04:49:37.344Z,8.5
2019-04-04T04:50:42.304Z,8.7
2019-04-04T04:51:45.295Z,8.6
2019-04-04T04:52:48.561Z,8.6
2019-04-04T04:53:52.766Z,8.9
2019-04-04T04:54:56.437Z,9.1
2019-04-04T04:56:02.413Z,9.2
2019-04-04T04:57:06.007Z,9
2019-04-04T04:58:12.500Z,8.9
2019-04-04T04:59:15.030Z,8.9
2019-04-04T05:00:17.849Z,9.1
2019-04-04T05:01:20.222Z,9.2
2019-04-04T05:02:23.922Z,9.4
2019-04-04T05:03:25.950Z,9.5
2019-04-04T05:04:30.566Z,9.5
2019-04-04T05:05:33.641Z,9.3
2019-04-04T05:06:37.291Z,9
2019-04-04T05:07:40.069Z,9
2019-04-04T05:08:42.674Z,8.9
2019-04-04T05:09:46.267Z,8.9
2019-04-04T05:10:48.288Z,9.1
2019-04-04T05:11:52.139Z,9
2019-04-04T05:12:54.830Z,9
2019-04-04T05:13:59.631Z,9.2
2019-04-04T05:15:03.470Z,9.3
2019-04-04T05:16:10.167Z,9.4
2019-04-04T05:17:12.588Z,9.6
2019-04-04T05:18:17.891Z,9.7
2019-04-04T05:19:20.938Z,9.7
2019-04-04T05:20:30.599Z,9.6
2019-04-04T05:21:35.640Z,9.6
2019-04-04T05:22:41.386Z,9.7
2019-04-04T05:23:47.618Z,9.9
2019-04-04T05:25:10.282Z,9.9
2019-04-04T05:26:12.348Z,10.1
2019-04-04T05:27:14.383Z,10
2019-04-04T05:28:16.487Z,10.1
2019-04-04T05:29:18.535Z,9.9
2019-04-04T05:30:21.802Z,9.8
2019-04-04T05:31:23.831Z,10
2019-04-04T05:32:25.937Z,10
2019-04-04T05:33:32.774Z,9.9
2019-04-04T05:34:34.894Z,9.9
2019-04-04T05:35:39.251Z,9.8
2019-04-04T05:36:41.377Z,10.1
2019-04-04T05:37:43.767Z,10
2019-04-04T05:38:48.364Z,10
2019-04-04T05:39:56.816Z,10.2
2019-04-04T05:40:58.878Z,10.2
2019-04-04T05:42:02.101Z,10.2
2019-04-04T05:43:05.837Z,10.4
2019-04-04T05:44:11.119Z,10.5
2019-04-04T05:45:16.284Z,10.3
2019-04-04T05:46:20.994Z,10.4
2019-04-04T05:47:25.111Z,10.5
2019-04-04T05:48:30.586Z,10.4
2019-04-04T05:49:32.657Z,10.3
2019-04-04T05:50:35.133Z,10.3
2019-04-04T05:51:37.784Z,10.3
2019-04-04T05:52:39.963Z,10.3
2019-04-04T05:53:42.016Z,10.3
2019-04-04T05:54:44.099Z,10.4
2019-04-04T05:55:46.509Z,10.4
2019-04-04T05:56:51.284Z,10
2019-04-04T05:57:54.020Z,9.9
2019-04-04T05:58:56.105Z,10.2
2019-04-04T05:59:58.221Z,10.2
2019-04-04T06:01:03.502Z,10.1
2019-04-04T06:02:05.613Z,10
2019-04-04T06:03:07.702Z,10.1
2019-04-04T06:04:09.810Z,10
2019-04-04T06:05:11.897Z,10.2
2019-04-04T06:06:13.962Z,10.4
2019-04-04T06:07:17.967Z,10.5
2019-04-04T06:08:20.364Z,10.6
2019-04-04T06:09:22.783Z,10.6
2019-04-04T06:10:24.823Z,10.7
2019-04-04T06:11:26.862Z,10.7
2019-04-04T06:12:28.893Z,10.8
2019-04-04T06:13:30.967Z,10.8
2019-04-04T06:14:33.018Z,10.7
2019-04-04T06:15:35.062Z,10.6
2019-04-04T06:16:37.107Z,10.6
2019-04-04T06:17:41.068Z,10.6
2019-04-04T06:18:44.547Z,10.7
2019-04-04T06:19:46.856Z,10.7
2019-04-04T06:20:49.994Z,10.6
2019-04-04T06:21:52.026Z,10.7
2019-04-04T06:22:54.074Z,10.7
2019-04-04T06:23:57.570Z,10.7
2019-04-04T06:25:00.939Z,10.6
2019-04-04T06:26:09.295Z,10.6
2019-04-04T06:27:11.344Z,10.6
2019-04-04T06:28:13.748Z,10.7
2019-04-04T06:29:18.855Z,10.8
2019-04-04T06:30:21.709Z,10.8
2019-04-04T06:31:32.035Z,10.8
2019-04-04T06:32:34.075Z,10.9
2019-04-04T06:33:37.232Z,10.7
2019-04-04T06:34:39.295Z,10.7
2019-04-04T06:35:41.334Z,10.6
2019-04-04T06:36:43.368Z,10.7
2019-04-04T06:37:52.239Z,10.9
2019-04-04T06:38:55.513Z,11.1
2019-04-04T06:40:00.395Z,10.9
2019-04-04T06:41:02.973Z,10.9
2019-04-04T06:42:05.146Z,11
2019-04-04T06:43:12.868Z,11.2
2019-04-04T06:44:14.924Z,11.3
2019-04-04T06:45:17.251Z,11.4
2019-04-04T06:46:24.066Z,11.3
2019-04-04T06:47:27.285Z,11.3
2019-04-04T06:48:34.990Z,11.3
2019-04-04T06:49:37.322Z,11.4
2019-04-04T06:50:43.995Z,11.4
2019-04-04T06:51:48.476Z,11.5
2019-04-04T06:52:52.092Z,11.6
2019-04-04T06:53:55.471Z,11.8
2019-04-04T06:54:59.266Z,11.8
2019-04-04T06:56:02.137Z,11.6
2019-04-04T06:57:06.083Z,11.8
2019-04-04T06:58:10.659Z,12
2019-04-04T06:59:13.557Z,12
2019-04-04T07:00:17.541Z,11.8
2019-04-04T07:01:26.242Z,11.8
2019-04-04T07:02:28.330Z,11.9
2019-04-04T07:03:30.407Z,12
2019-04-04T07:04:37.279Z,11.9
2019-04-04T07:05:40.010Z,12
2019-04-04T07:06:44.177Z,12.2
2019-04-04T07:07:46.250Z,12.1
2019-04-04T07:08:48.299Z,12.2
2019-04-04T07:09:51.923Z,12.2
2019-04-04T07:11:22.108Z,12.2
2019-04-04T07:12:29.874Z,12.3
2019-04-04T07:13:43.858Z,12.4
2019-04-04T07:14:50.805Z,12.4
2019-04-04T07:16:09.105Z,12.4
2019-04-04T07:17:11.690Z,12.5
2019-04-04T07:18:14.040Z,12.6
2019-04-04T07:19:16.302Z,12.5
2019-04-04T07:20:18.865Z,12.5
2019-04-04T07:21:21.676Z,12.6
2019-04-04T07:22:26.419Z,12.6
2019-04-04T07:23:29.507Z,12.6
2019-04-04T07:24:32.719Z,12.5
2019-04-04T07:25:41.229Z,12.2
2019-04-04T07:26:46.989Z,12.2
2019-04-04T07:27:49.381Z,12.5
2019-04-04T07:28:55.257Z,12.4
2019-04-04T07:29:58.246Z,12.5
2019-04-04T07:31:03.360Z,12.6
2019-04-04T07:32:10.403Z,12.5
2019-04-04T07:33:13.849Z,12.5
2019-04-04T07:34:15.898Z,12.8
2019-04-04T07:35:22.253Z,12.6
2019-04-04T07:36:24.282Z,12.6
2019-04-04T07:37:26.634Z,12.9
2019-04-04T07:38:30.309Z,13
2019-04-04T07:39:33.737Z,13.1
2019-04-04T07:40:38.565Z,13.1
2019-04-04T07:41:45.946Z,13
2019-04-04T07:42:49.067Z,13
2019-04-04T07:43:53.545Z,13
2019-04-04T07:44:56.451Z,13.4
2019-04-04T07:46:18.180Z,13.4
2019-04-04T07:47:20.231Z,13.5
2019-04-04T07:48:22.334Z,13.7
2019-04-04T07:49:25.417Z,13.6
2019-04-04T07:50:28.520Z,13.7
2019-04-04T07:51:31.897Z,13.9
2019-04-04T07:52:34.717Z,13.9
2019-04-04T07:53:38.055Z,14
2019-04-04T07:54:40.303Z,14.3
2019-04-04T07:55:43.927Z,14.4
2019-04-04T07:56:49.831Z,14.5
2019-04-04T07:57:52.723Z,14.2
2019-04-04T07:58:55.157Z,14.4
2019-04-04T07:59:57.272Z,14.7
2019-04-04T08:00:59.390Z,14.7
2019-04-04T08:02:01.505Z,14.9
2019-04-04T08:03:03.899Z,14.8
2019-04-04T08:04:08.166Z,14.7
2019-04-04T08:05:13.731Z,14.8
2019-04-04T08:06:16.175Z,14.9
2019-04-04T08:07:18.320Z,14.8
2019-04-04T08:08:20.429Z,14.7
2019-04-04T08:09:22.548Z,14.8
2019-04-04T08:10:24.663Z,14.7
2019-04-04T08:11:27.119Z,14.8
2019-04-04T08:12:29.230Z,14.7
2019-04-04T08:13:31.645Z,14.8
2019-04-04T08:14:34.055Z,14.8
2019-04-04T08:15:37.158Z,14.6
2019-04-04T08:16:39.272Z,14.8
2019-04-04T08:17:41.391Z,14.3
2019-04-04T08:18:43.511Z,14.8
2019-04-04T08:19:45.617Z,14.6
2019-04-04T08:20:48.013Z,14.4
2019-04-04T08:21:50.129Z,14.5
2019-04-04T08:22:52.626Z,14.8
2019-04-04T08:23:55.030Z,14.4
2019-04-04T08:24:57.144Z,14.3
2019-04-04T08:25:59.293Z,14.6
2019-04-04T08:27:01.429Z,14.7
2019-04-04T08:28:03.948Z,14.5
2019-04-04T08:29:06.057Z,14.6
2019-04-04T08:30:08.180Z,14.5
2019-04-04T08:31:11.061Z,14.6
2019-04-04T08:32:13.457Z,14.6
2019-04-04T08:33:15.861Z,14.4
2019-04-04T08:34:18.371Z,14.3
2019-04-04T08:35:20.487Z,14.2
2019-04-04T08:36:22.630Z,14
2019-04-04T08:37:24.778Z,13.9
2019-04-04T08:38:27.212Z,14.3
2019-04-04T08:39:29.358Z,14.4
2019-04-04T08:40:32.157Z,14.5
2019-04-04T08:41:34.277Z,14.6
2019-04-04T08:42:36.674Z,14
2019-04-04T08:43:38.787Z,14
2019-04-04T08:44:41.563Z,13.9
2019-04-04T08:45:44.065Z,14.2
2019-04-04T08:46:46.185Z,14.2
2019-04-04T08:47:48.571Z,14.2
2019-04-04T08:48:50.694Z,14
2019-04-04T08:49:52.891Z,14.2
2019-04-04T08:50:55.003Z,14.3
2019-04-04T08:51:57.441Z,14.7
2019-04-04T08:52:59.562Z,14.7
2019-04-04T08:54:01.696Z,14.7
2019-04-04T08:55:04.415Z,14.9
2019-04-04T08:56:06.561Z,15
2019-04-04T08:57:08.674Z,15
2019-04-04T08:58:10.784Z,15.4
2019-04-04T08:59:12.902Z,15.5
2019-04-04T09:00:15.020Z,15.3
2019-04-04T09:01:17.136Z,15.1
2019-04-04T09:02:19.651Z,15.3
2019-04-04T09:03:21.773Z,15.3
2019-04-04T09:04:25.419Z,15.7
2019-04-04T09:05:27.572Z,15.9
2019-04-04T09:06:29.689Z,15.6
2019-04-04T09:07:32.091Z,15.8
2019-04-04T09:08:34.246Z,15.8
2019-04-04T09:09:36.751Z,15.7
2019-04-04T09:10:38.968Z,15.1
2019-04-04T09:11:41.091Z,15.2
2019-04-04T09:12:43.490Z,15.5
2019-04-04T09:13:45.603Z,15.6
2019-04-04T09:14:47.720Z,16.1
2019-04-04T09:15:49.833Z,16.1
2019-04-04T09:16:51.951Z,16.3
2019-04-04T09:17:54.089Z,16.5
2019-04-04T09:18:56.203Z,16.3
2019-04-04T09:19:58.320Z,16.8
2019-04-04T09:21:00.445Z,16.7
2019-04-04T09:22:02.845Z,16.5
2019-04-04T09:23:04.969Z,16.6
2019-04-04T09:24:07.096Z,16.9
2019-04-04T09:25:12.430Z,17
2019-04-04T09:26:14.639Z,16.4
2019-04-04T09:27:17.051Z,16.7
2019-04-04T09:28:19.175Z,16.9
2019-04-04T09:29:21.287Z,16.8
2019-04-04T09:30:23.405Z,17.1
2019-04-04T09:31:25.529Z,17.3
2019-04-04T09:32:27.646Z,17.4
2019-04-04T09:33:29.829Z,17.4
2019-04-04T09:34:32.524Z,17.2
2019-04-04T09:35:34.650Z,17.1
2019-04-04T09:36:36.785Z,17
2019-04-04T09:37:38.922Z,17.2
2019-04-04T09:38:41.053Z,17.5
2019-04-04T09:39:43.179Z,17.3
2019-04-04T09:40:45.582Z,17.3
2019-04-04T09:41:48.088Z,17.8
2019-04-04T09:42:50.580Z,18
2019-04-04T09:43:52.915Z,18.1
2019-04-04T09:44:55.036Z,18.1
2019-04-04T09:45:57.221Z,18
2019-04-04T09:47:07.927Z,17.9
2019-04-04T09:48:10.041Z,17.8
2019-04-04T09:49:14.207Z,18
2019-04-04T09:50:16.352Z,17.8
2019-04-04T09:51:18.491Z,17.7
2019-04-04T09:52:20.610Z,17.8
2019-04-04T09:53:22.785Z,18
2019-04-04T09:54:24.914Z,18.3
2019-04-04T09:55:27.055Z,18.5
2019-04-04T09:56:29.908Z,18.3
2019-04-04T09:57:32.030Z,18.5
2019-04-04T09:58:34.150Z,19
2019-04-04T09:59:36.873Z,19.1
2019-04-04T10:00:39.011Z,18.9
2019-04-04T10:01:41.420Z,19.1
2019-04-04T10:02:43.766Z,19.1
2019-04-04T10:03:45.893Z,18.6
2019-04-04T10:04:48.009Z,18.5
2019-04-04T10:05:50.130Z,18.4
2019-04-04T10:06:52.255Z,18.2
2019-04-04T10:07:54.377Z,18.6
2019-04-04T10:08:56.496Z,17.9
2019-04-04T10:09:58.629Z,17.6
2019-04-04T10:11:01.038Z,17.6
2019-04-04T10:12:03.181Z,17.8
2019-04-04T10:13:05.308Z,18
2019-04-04T10:14:07.430Z,17.9
2019-04-04T10:15:09.562Z,18
2019-04-04T10:16:11.712Z,17.8
2019-04-04T10:17:13.826Z,17.4
2019-04-04T10:18:15.959Z,17.5
2019-04-04T10:19:18.126Z,17.8
2019-04-04T10:20:20.606Z,18
2019-04-04T10:21:23.016Z,18.1
2019-04-04T10:22:25.132Z,18.2
2019-04-04T10:23:27.542Z,18.5
2019-04-04T10:24:29.673Z,18.6
2019-04-04T10:25:31.794Z,18.8
2019-04-04T10:26:33.921Z,18.6
2019-04-04T10:27:36.039Z,18.4
2019-04-04T10:28:38.452Z,18.5
2019-04-04T10:29:40.663Z,18.5
2019-04-04T10:30:42.782Z,18.9
2019-04-04T10:31:44.921Z,19.2
2019-04-04T10:32:47.053Z,19.4
2019-04-04T10:33:49.568Z,19.4
2019-04-04T10:34:51.692Z,19
2019-04-04T10:35:54.129Z,19.3
2019-04-04T10:36:56.249Z,19.3
2019-04-04T10:37:58.374Z,19.5
2019-04-04T10:39:00.515Z,19.3
2019-04-04T10:40:03.667Z,19
2019-04-04T10:41:05.799Z,19.2
2019-04-04T10:42:07.929Z,19.2
2019-04-04T10:43:10.062Z,19.4
2019-04-04T10:44:12.180Z,19.6
2019-04-04T10:45:14.362Z,19.9
2019-04-04T10:46:16.488Z,19.7
2019-04-04T10:47:18.619Z,19.7
2019-04-04T10:48:21.127Z,19.3
2019-04-04T10:49:23.252Z,19.3
2019-04-04T10:50:25.386Z,19.5
2019-04-04T10:51:27.506Z,19.5
2019-04-04T10:52:29.628Z,19.7
2019-04-04T10:53:31.782Z,19.6
2019-04-04T10:54:34.256Z,19.8
2019-04-04T10:55:37.127Z,20
2019-04-04T10:56:39.251Z,20
2019-04-04T10:57:41.385Z,19.9
2019-04-04T10:58:43.515Z,20.2
2019-04-04T10:59:45.639Z,20.3
2019-04-04T11:00:48.151Z,20
2019-04-04T11:01:50.663Z,20.1
2019-04-04T11:02:53.108Z,20.3
2019-04-04T11:03:55.310Z,20.1
2019-04-04T11:04:57.430Z,20.3
2019-04-04T11:05:59.556Z,19.8
2019-04-04T11:07:01.683Z,19.8
2019-04-04T11:08:03.810Z,20.2
2019-04-04T11:09:05.943Z,20.3
2019-04-04T11:10:08.113Z,19.9
2019-04-04T11:11:10.257Z,20.2
2019-04-04T11:12:12.784Z,20.8
2019-04-04T11:13:15.283Z,20.8
2019-04-04T11:14:17.438Z,21.1
2019-04-04T11:15:19.563Z,21.1
2019-04-04T11:16:31.651Z,21
2019-04-04T11:17:34.047Z,21.1
2019-04-04T11:18:36.944Z,21.5
2019-04-04T11:19:39.168Z,21.8
2019-04-04T11:20:41.468Z,21.8
2019-04-04T11:21:43.807Z,21.7
2019-04-04T11:22:46.108Z,22
2019-04-04T11:23:48.397Z,21.8
2019-04-04T11:24:50.933Z,22.2
2019-04-04T11:25:53.158Z,22.7
2019-04-04T11:26:55.571Z,22.7
2019-04-04T11:27:57.694Z,22.6
2019-04-04T11:28:59.837Z,22.6
2019-04-04T11:30:02.660Z,22.5
2019-04-04T11:31:04.794Z,22.7
2019-04-04T11:32:07.215Z,22.8
2019-04-04T11:33:09.341Z,22.7
2019-04-04T11:34:11.457Z,22.5
2019-04-04T11:35:13.593Z,22.6
2019-04-04T11:36:16.164Z,22.7
2019-04-04T11:37:18.582Z,22.7
2019-04-04T11:38:20.716Z,22.8
2019-04-04T11:39:22.847Z,22.9
2019-04-04T11:40:24.983Z,22.7
2019-04-04T11:41:27.394Z,22.7
2019-04-04T11:42:29.522Z,22.8
2019-04-04T11:43:31.653Z,22.8
2019-04-04T11:44:33.811Z,23
2019-04-04T11:45:35.948Z,22.9
2019-04-04T11:46:38.078Z,22.6
2019-04-04T11:47:40.201Z,23.1
2019-04-04T11:48:42.606Z,23.2
2019-04-04T11:49:44.735Z,23.2
2019-04-04T11:50:46.875Z,23.6
2019-04-04T11:51:49.007Z,23.2
2019-04-04T11:52:51.441Z,22.9
2019-04-04T11:53:53.853Z,23.1
2019-04-04T11:54:55.995Z,23.1
2019-04-04T11:55:58.422Z,23
2019-04-04T11:57:00.559Z,23.4
2019-04-04T11:58:02.698Z,23.4
2019-04-04T11:59:04.837Z,23.7
2019-04-04T12:00:10.093Z,23.6
2019-04-04T12:01:12.540Z,23.7
2019-04-04T12:02:14.666Z,23.7
2019-04-04T12:03:16.796Z,23.8
2019-04-04T12:04:18.925Z,23.7
2019-04-04T12:05:21.068Z,23
2019-04-04T12:06:23.796Z,22.9
2019-04-04T12:07:25.921Z,22.5
2019-04-04T12:08:28.379Z,22.4
2019-04-04T12:09:30.511Z,22.7
2019-04-04T12:10:32.702Z,23
2019-04-04T12:11:34.863Z,23.1
2019-04-04T12:12:37.083Z,23.5
2019-04-04T12:13:40.285Z,23.8
2019-04-04T12:14:42.818Z,24
2019-04-04T12:15:44.957Z,23.4
2019-04-04T12:16:47.086Z,22.9
2019-04-04T12:17:49.298Z,22.8
2019-04-04T12:18:51.818Z,23.1
2019-04-04T12:19:53.952Z,23.6
2019-04-04T12:20:56.477Z,23.6
2019-04-04T12:21:59.062Z,23.6
2019-04-04T12:23:01.485Z,23.9
2019-04-04T12:24:03.911Z,24.4
2019-04-04T12:25:06.621Z,24.4
2019-04-04T12:26:09.154Z,24.2
2019-04-04T12:27:11.600Z,24.2
2019-04-04T12:28:13.728Z,24
2019-04-04T12:29:15.859Z,24.4
2019-04-04T12:30:21.291Z,24
2019-04-04T12:31:24.108Z,24.1
2019-04-04T12:32:26.241Z,24.4
2019-04-04T12:33:28.385Z,24
2019-04-04T12:34:30.530Z,23.8
2019-04-04T12:35:32.666Z,23.9
2019-04-04T12:36:34.807Z,23.6
2019-04-04T12:37:37.344Z,23.9
2019-04-04T12:38:39.476Z,24.1
2019-04-04T12:39:44.850Z,24.4
2019-04-04T12:40:46.992Z,24.3
2019-04-04T12:41:49.127Z,24.3
2019-04-04T12:42:51.661Z,24.3
2019-04-04T12:43:54.097Z,24.7
2019-04-04T12:44:56.230Z,24.4
2019-04-04T12:45:58.361Z,24.7
2019-04-04T12:47:00.507Z,25.2
2019-04-04T12:48:02.658Z,24.9
2019-04-04T12:49:04.794Z,24.4
2019-04-04T12:50:07.219Z,24.3
2019-04-04T12:51:09.429Z,24.5
2019-04-04T12:52:11.857Z,24.2
2019-04-04T12:53:13.991Z,24.4
2019-04-04T12:54:16.120Z,24.4
2019-04-04T12:55:18.261Z,24
2019-04-04T12:56:20.436Z,24.3
2019-04-04T12:57:22.568Z,24.8
2019-04-04T12:58:24.982Z,25.1
2019-04-04T12:59:27.400Z,24.9
2019-04-04T13:00:29.538Z,25
2019-04-04T13:01:31.669Z,24.5
2019-04-04T13:02:33.799Z,24.1
2019-04-04T13:03:35.941Z,24.8
2019-04-04T13:04:38.467Z,24.8
2019-04-04T13:05:40.603Z,24.5
2019-04-04T13:06:42.809Z,24.5
2019-04-04T13:07:45.307Z,24.9
2019-04-04T13:08:47.451Z,24.8
2019-04-04T13:09:49.604Z,24.7
2019-04-04T13:10:51.747Z,24.8
2019-04-04T13:11:53.923Z,24.8
2019-04-04T13:12:56.732Z,24.9
2019-04-04T13:13:58.871Z,24.6
2019-04-04T13:15:01.009Z,25
2019-04-04T13:16:03.163Z,25.4
2019-04-04T13:17:05.296Z,25.3
2019-04-04T13:18:07.435Z,25.3
2019-04-04T13:19:09.877Z,25.4
2019-04-04T13:20:12.327Z,25.8
2019-04-04T13:21:14.460Z,25.1
2019-04-04T13:22:16.598Z,25.2
2019-04-04T13:23:18.742Z,24.9
2019-04-04T13:24:20.951Z,25
2019-04-04T13:25:23.087Z,25.4
2019-04-04T13:26:25.227Z,25.1
2019-04-04T13:27:27.376Z,24.8
2019-04-04T13:28:29.504Z,24.6
2019-04-04T13:29:31.642Z,24.9
2019-04-04T13:30:34.061Z,24.9
2019-04-04T13:31:36.195Z,25
2019-04-04T13:32:38.613Z,24.8
2019-04-04T13:33:40.749Z,25.2
2019-04-04T13:34:42.881Z,24.9
2019-04-04T13:35:45.013Z,25
2019-04-04T13:36:47.631Z,24.9
2019-04-04T13:37:49.878Z,24.9
2019-04-04T13:38:54.825Z,24.8
2019-04-04T13:39:57.304Z,24.5
2019-04-04T13:40:59.444Z,24.5
2019-04-04T13:42:01.922Z,24.2
2019-04-04T13:43:04.066Z,24.1
2019-04-04T13:44:06.586Z,24
2019-04-04T13:45:09.019Z,24.2
2019-04-04T13:46:12.293Z,24.3
2019-04-04T13:47:14.429Z,24.4
2019-04-04T13:48:16.561Z,24.3
2019-04-04T13:49:18.701Z,24.3
2019-04-04T13:50:21.690Z,24.5
2019-04-04T13:51:33.609Z,24.5
2019-04-04T13:52:35.760Z,24.5
2019-04-04T13:53:37.897Z,24.6
2019-04-04T13:54:40.432Z,24.7
2019-04-04T13:55:43.272Z,25
2019-04-04T13:56:45.417Z,25.1
2019-04-04T13:57:49.286Z,25.2
2019-04-04T13:58:51.420Z,25.3
2019-04-04T13:59:53.558Z,25.2
2019-04-04T14:00:55.690Z,24.6
2019-04-04T14:01:58.129Z,24.5
2019-04-04T14:03:00.268Z,24.5
2019-04-04T14:04:05.582Z,24.4
2019-04-04T14:05:17.770Z,24.6
2019-04-04T14:06:19.969Z,24.6
2019-04-04T14:07:22.121Z,25
2019-04-04T14:08:24.927Z,25.1
2019-04-04T14:09:27.125Z,25.3
2019-04-04T14:10:29.261Z,25
2019-04-04T14:11:31.396Z,24.8
2019-04-04T14:12:33.564Z,24.6